»·PEaware :: N326MC E38-KELP

N326MC :: E38-KELP

FLIGHT INFORMATION

Flight Status: Arrived
Operator: Privately registered:
United States
More flights under this callsign
Pilot: Anonymous 5456 (5456)
Aircraft: PILATUS PC-12 EAGLE
(PC12)
More flights by this aircraft type
Origin: E38 Alpine-Casparis Mun
United States
Destination: KELP El Paso Intl
United States
More flights between these airports :: More routes between these airports
Route: +DIRECT
File this flight plan on PilotEdge
Remarks:
Altitude:
(Current/Filed)
24,000ft
Speed:
(Current/Filed)
250kts
Departed: 18-Jul-17 03:36 PM
Arrived: 18-Jul-17 04:31 PM
Distance/Time
Traveled:
162nm/0:54
Distance/Time
To Go:
Arrived

Flight Plot

Page will automatically refresh every two minutes.

Flight plan parsing failed; only flown route is shown


Map Options




Map Legend


Flown Route
Filed Route
Departure Airport
Arrival Airport
Navaid (VOR, NDB)
Fix

Horizontal Profiles

Position Reports

Time Latitude Longitude Heading Altitude Ground
Speed
18-Jul-17 15:31 30.388303 -103.676501 151 4519ft 0kts
18-Jul-17 15:32 30.388303 -103.676501 151 4519ft 0kts
18-Jul-17 15:33 30.388303 -103.676501 151 4519ft 0kts
18-Jul-17 15:34 30.388303 -103.676501 151 4519ft 0kts
18-Jul-17 15:35 30.388303 -103.676501 151 4519ft 0kts
18-Jul-17 15:36 30.388303 -103.676501 151 4519ft 0kts
18-Jul-17 15:37 30.388303 -103.676501 151 4519ft 0kts
18-Jul-17 15:38 30.388351 -103.676902 323 4519ft 4kts
18-Jul-17 15:39 30.387925 -103.679292 240 4519ft 58kts
18-Jul-17 15:40 30.374496 -103.709597 248 5392ft 123kts
18-Jul-17 15:41 30.397963 -103.737489 327 6824ft 135kts
18-Jul-17 15:42 30.425130 -103.765823 306 8337ft 137kts
18-Jul-17 15:43 30.448799 -103.803828 301 10227ft 151kts
18-Jul-17 15:44 30.471636 -103.844532 299 12200ft 152kts
18-Jul-17 15:45 30.498333 -103.893722 301 13281ft 195kts
18-Jul-17 15:46 30.527163 -103.945408 301 15008ft 193kts
18-Jul-17 15:47 30.555509 -103.998439 303 16613ft 194kts
18-Jul-17 15:48 30.585275 -104.053297 303 17877ft 208kts
18-Jul-17 15:49 30.616388 -104.110668 303 19180ft 212kts
18-Jul-17 15:50 30.647790 -104.168714 303 20474ft 214kts
18-Jul-17 15:51 30.679562 -104.227599 303 21741ft 216kts
18-Jul-17 15:52 30.711700 -104.287185 302 22571ft 236kts
18-Jul-17 15:53 30.750048 -104.358419 302 22250ft 276kts
18-Jul-17 15:54 30.791176 -104.435004 302 22240ft 281kts
18-Jul-17 15:55 30.832195 -104.511524 302 22095ft 276kts
18-Jul-17 15:56 30.872027 -104.585954 302 22076ft 267kts
18-Jul-17 15:57 30.908578 -104.654393 302 22209ft 260kts
18-Jul-17 15:58 30.946551 -104.725555 302 22265ft 260kts
18-Jul-17 15:59 30.984689 -104.797318 302 22265ft 261kts
18-Jul-17 16:00 31.022934 -104.869300 302 22265ft 261kts
18-Jul-17 16:01 31.055882 -104.931439 302 22266ft 261kts
18-Jul-17 16:02 31.094050 -105.003539 302 22266ft 261kts
18-Jul-17 16:03 31.130308 -105.072167 302 22265ft 262kts
18-Jul-17 16:04 31.168321 -105.144248 302 22266ft 262kts
18-Jul-17 16:05 31.206230 -105.216262 302 22266ft 262kts
18-Jul-17 16:06 31.244313 -105.288725 302 22267ft 262kts
18-Jul-17 16:07 31.282294 -105.361174 302 22266ft 262kts
18-Jul-17 16:08 31.320331 -105.433825 302 22266ft 262kts
18-Jul-17 16:09 31.358239 -105.506374 302 22266ft 262kts
18-Jul-17 16:10 31.396160 -105.579093 302 22136ft 267kts
18-Jul-17 16:11 31.449422 -105.645545 320 20689ft 294kts
18-Jul-17 16:12 31.510005 -105.707686 319 19210ft 297kts
18-Jul-17 16:13 31.571242 -105.770698 319 17698ft 291kts
18-Jul-17 16:14 31.614294 -105.846028 301 17370ft 238kts
18-Jul-17 16:15 31.645343 -105.914614 296 17838ft 257kts
18-Jul-17 16:16 31.674503 -105.994936 292 17840ft 275kts
18-Jul-17 16:17 31.730083 -106.058229 328 16135ft 289kts
18-Jul-17 16:18 31.796412 -106.106484 346 13439ft 276kts
18-Jul-17 16:19 31.829681 -106.053671 126 10819ft 254kts
18-Jul-17 16:20 31.765097 -106.044579 186 8313ft 244kts
18-Jul-17 16:21 31.701907 -106.053443 186 6983ft 198kts
18-Jul-17 16:22 31.655907 -106.060097 186 6988ft 151kts
18-Jul-17 16:23 31.609429 -106.066786 186 6996ft 182kts
18-Jul-17 16:24 31.559680 -106.074613 186 6988ft 177kts
18-Jul-17 16:25 31.526754 -106.105527 290 7001ft 194kts
18-Jul-17 16:26 31.577548 -106.140657 337 6014ft 229kts
18-Jul-17 16:27 31.631769 -106.168354 337 5988ft 202kts
18-Jul-17 16:28 31.681966 -106.192443 337 5990ft 190kts
18-Jul-17 16:29 31.722060 -106.209482 338 6020ft 167kts
18-Jul-17 16:30 31.760738 -106.228996 337 6025ft 165kts
18-Jul-17 16:31 31.796529 -106.256831 298 6049ft 161kts
18-Jul-17 16:32 31.797621 -106.311042 273 5175ft 167kts
18-Jul-17 16:33 31.800499 -106.357506 274 4024ft 118kts
18-Jul-17 16:34 31.799717 -106.370598 210 3962ft 10kts
18-Jul-17 16:35 31.798270 -106.373879 246 3962ft 12kts
18-Jul-17 16:36 31.798153 -106.374861 261 3962ft 0kts

Navigation Log

Ident Type
Flight plan parsing failed, navigation log unavailable